Time;durP1;ratioP1;P1;durP2;ratioP2;P2;SDS_P1;SDS_P2;PMS_P1;PMS_P2;Temp;Humidity;BMP_temperature;BMP_pressure;BME280_temperature;BME280_humidity;BME280_pressure;Samples;Min_cycle;Max_cycle;Signal;HPM_P1;HPM_P2
2021/06/23 00:02:19;;;;;;;18.05;13.00;;;19.40;82.20;;;19.78;64.60;97614.84;5028363;28;20270;-40
2021/06/23 00:04:48;;;;;;;18.75;12.85;;;19.50;82.00;;;19.84;64.46;97623.94;5028390;28;20046;-40
2021/06/23 00:07:16;;;;;;;14.90;12.45;;;19.50;81.70;;;19.83;64.79;97623.13;5027954;28;20674;-40
2021/06/23 00:09:43;;;;;;;16.85;11.98;;;19.60;81.60;;;19.86;64.44;97624.53;5027952;28;20049;-40
2021/06/23 00:12:15;;;;;;;16.75;13.70;;;19.60;81.40;;;19.90;64.40;97631.16;5027614;28;20259;-40
2021/06/23 00:14:44;;;;;;;16.42;14.20;;;19.60;81.30;;;19.92;64.32;97639.03;5027828;28;20053;-40
2021/06/23 00:17:12;;;;;;;16.80;14.88;;;19.60;81.30;;;19.90;64.48;97641.16;5026453;28;20233;-40
2021/06/23 00:19:40;;;;;;;17.73;14.85;;;19.60;81.30;;;19.90;64.30;97636.56;5027972;28;20064;-40
2021/06/23 00:22:08;;;;;;;21.52;15.02;;;19.60;81.50;;;19.90;64.40;97638.44;5027476;28;20065;-40
2021/06/23 00:24:35;;;;;;;20.92;16.20;;;19.60;81.60;;;19.86;64.81;97643.47;5027692;28;20246;-40
2021/06/23 00:27:05;;;;;;;20.42;15.88;;;19.50;81.90;;;19.86;64.92;97646.97;5027319;28;20049;-40
2021/06/23 00:29:32;;;;;;;20.92;18.27;;;19.60;82.00;;;19.89;65.14;97644.88;5026229;28;20041;-40
2021/06/23 00:32:03;;;;;;;21.83;15.82;;;19.60;82.50;;;19.89;65.09;97651.13;5025377;28;20061;-40
2021/06/23 00:34:31;;;;;;;21.13;16.55;;;19.60;82.10;;;19.91;65.00;97648.19;5025736;28;20242;-40
2021/06/23 00:36:59;;;;;;;20.55;16.73;;;19.70;82.30;;;19.91;65.29;97659.00;5024034;28;20057;-40
2021/06/23 00:39:27;;;;;;;20.73;16.23;;;19.70;82.30;;;19.92;65.61;97655.25;5026272;28;20053;-40
2021/06/23 00:41:55;;;;;;;19.85;16.33;;;19.70;82.60;;;19.95;65.54;97649.41;5025191;28;20127;-40
2021/06/23 00:44:24;;;;;;;21.67;16.38;;;19.70;82.60;;;19.96;65.71;97653.75;5022707;28;20497;-40
2021/06/23 00:46:53;;;;;;;21.27;18.52;;;19.80;82.50;;;19.98;65.83;97648.97;5026522;28;20053;-40
2021/06/23 00:49:24;;;;;;;19.40;15.50;;;19.80;82.70;;;19.99;65.77;97647.94;5024659;28;20057;-40
2021/06/23 00:52:09;;;;;;;18.17;14.82;;;19.80;82.60;;;20.01;65.79;97649.34;5024117;28;20076;-40
2021/06/23 00:55:01;;;;;;;19.33;15.75;;;19.80;82.90;;;19.99;65.54;97631.72;5026492;28;20076;-40
2021/06/23 00:57:33;;;;;;;18.70;15.43;;;19.70;82.70;;;19.99;65.40;97632.53;5024992;28;20053;-40
2021/06/23 01:00:03;;;;;;;19.13;14.90;;;19.70;82.60;;;19.97;65.42;97639.22;5026399;28;20374;-40
2021/06/23 01:02:33;;;;;;;18.70;15.38;;;19.70;82.80;;;19.96;65.71;97645.66;5025340;28;20053;-41
2021/06/23 01:05:02;;;;;;;18.92;15.65;;;19.70;83.10;;;19.95;66.05;97639.44;5024356;28;20262;-41
2021/06/23 01:07:30;;;;;;;17.45;15.07;;;19.70;83.30;;;19.96;65.92;97634.84;5025993;28;20079;-41
2021/06/23 01:10:00;;;;;;;18.08;15.38;;;19.70;83.40;;;19.96;66.00;97637.56;5026619;28;20053;-41
2021/06/23 01:12:44;;;;;;;19.60;14.93;;;19.70;83.30;;;19.95;65.76;97633.19;5025133;28;20059;-41
2021/06/23 01:15:15;;;;;;;18.35;15.15;;;19.70;83.60;;;19.93;65.81;97630.72;5025495;28;20057;-41
2021/06/23 01:17:43;;;;;;;18.77;14.80;;;19.60;83.40;;;19.91;66.05;97631.97;5025937;28;20336;-41
2021/06/23 01:20:13;;;;;;;18.50;15.18;;;19.60;83.40;;;19.91;66.04;97638.22;5024855;28;20386;-41
2021/06/23 01:22:45;;;;;;;19.20;15.55;;;19.60;83.40;;;19.89;65.94;97645.72;5026769;28;20343;-41
2021/06/23 01:25:16;;;;;;;20.42;15.20;;;19.60;83.70;;;19.89;66.14;97647.59;5026269;28;20362;-41
2021/06/23 01:27:46;;;;;;;17.55;14.98;;;19.60;83.80;;;19.88;66.11;97648.66;5025721;28;20053;-41
2021/06/23 01:30:16;;;;;;;16.60;13.15;;;19.60;83.60;;;19.86;66.22;97651.56;5025393;28;20057;-41
2021/06/23 01:32:47;;;;;;;16.08;12.68;;;19.60;83.50;;;19.87;66.21;97647.78;5026735;28;20045;-42
2021/06/23 01:35:16;;;;;;;17.27;13.98;;;19.60;84.50;;;19.86;66.46;97644.28;5026288;28;20071;-41
2021/06/23 01:37:44;;;;;;;17.52;14.48;;;19.60;84.10;;;19.85;66.41;97639.94;5025676;28;20045;-42
2021/06/23 01:40:14;;;;;;;17.52;14.27;;;19.60;84.10;;;19.85;66.31;97636.38;5023998;28;20247;-41
2021/06/23 01:42:43;;;;;;;16.58;12.88;;;19.60;84.10;;;19.84;66.60;97630.16;5025103;28;20049;-41
2021/06/23 01:45:13;;;;;;;15.75;13.57;;;19.60;84.00;;;19.85;66.41;97626.44;5040620;28;20692;-42
2021/06/23 01:47:42;;;;;;;14.77;13.18;;;19.60;83.90;;;19.85;66.23;97628.28;5025618;28;20053;-41
2021/06/23 01:50:12;;;;;;;17.35;14.30;;;19.70;83.90;;;19.88;66.28;97627.03;5025939;28;20057;-42
2021/06/23 01:52:52;;;;;;;16.10;13.05;;;19.70;83.70;;;19.84;66.26;97615.84;5026101;28;20227;-40
2021/06/23 01:55:30;;;;;;;17.70;14.32;;;19.70;83.80;;;19.86;66.64;97608.34;5026231;28;20049;-40
2021/06/23 01:58:08;;;;;;;15.90;13.77;;;19.70;84.00;;;19.89;66.44;97607.06;5025658;28;20068;-40
2021/06/23 02:01:01;;;;;;;17.35;13.75;;;19.70;84.40;;;19.87;66.58;97601.88;5022733;28;20381;-40
2021/06/23 02:03:52;;;;;;;18.55;15.40;;;19.70;85.20;;;19.86;66.37;97600.22;5025690;28;20068;-40
2021/06/23 02:06:49;;;;;;;17.70;15.40;;;19.70;85.70;;;19.84;66.51;97600.44;5024406;28;20053;-40
2021/06/23 02:10:01;;;;;;;18.02;14.80;;;19.60;85.00;;;19.81;66.43;97600.06;5026579;28;20378;-40
2021/06/23 02:13:24;;;;;;;18.23;14.40;;;19.60;85.10;;;19.78;66.32;97609.44;5026660;28;20054;-40
2021/06/23 02:15:55;;;;;;;;;;;19.60;84.70;;;19.73;66.23;97603.06;5024469;28;20343;-40
2021/06/23 02:18:27;;;;;;;16.15;13.40;;;19.50;85.80;;;19.74;66.56;97602.00;5040628;28;19931;-40
2021/06/23 02:21:22;;;;;;;20.42;16.02;;;19.60;84.60;;;19.74;66.75;97599.31;5022662;28;20063;-40
2021/06/23 02:23:52;;;;;;;18.48;15.73;;;19.60;84.40;;;19.76;66.77;97602.63;5023520;28;20057;-41
2021/06/23 02:26:24;;;;;;;18.63;15.85;;;19.60;84.50;;;19.74;66.82;97599.31;5026404;28;20057;-41
2021/06/23 02:28:53;;;;;;;18.63;15.60;;;19.60;84.40;;;19.74;66.99;97602.84;5022896;28;20053;-41
2021/06/23 02:31:22;;;;;;;18.58;15.00;;;19.60;84.90;;;19.71;67.00;97597.84;5023008;28;20060;-41
2021/06/23 02:33:54;;;;;;;19.98;16.13;;;19.50;84.80;;;19.72;66.84;97593.31;5025504;28;20056;-41
2021/06/23 02:36:34;;;;;;;21.05;17.25;;;19.60;84.90;;;19.72;67.08;97596.00;5023643;28;20057;-41
2021/06/23 02:39:06;;;;;;;21.27;16.50;;;19.60;85.00;;;19.72;66.93;97586.03;5025328;28;20063;-41
2021/06/23 02:41:35;;;;;;;22.17;17.13;;;19.50;85.20;;;19.71;67.00;97588.91;5006612;28;20053;-41
2021/06/23 02:44:05;;;;;;;22.83;17.20;;;19.50;85.20;;;19.70;67.11;97585.38;5024139;28;20049;-41
2021/06/23 02:46:34;;;;;;;20.65;16.77;;;19.50;85.30;;;19.68;66.78;97582.91;5025399;28;20049;-41
2021/06/23 02:49:19;;;;;;;18.23;15.48;;;19.50;85.60;;;19.66;67.24;97589.59;5027327;28;20046;-41
2021/06/23 02:51:48;;;;;;;20.80;15.85;;;19.40;85.50;;;19.65;67.40;97594.13;5023103;28;20072;-41
2021/06/23 02:54:18;;;;;;;22.08;14.98;;;19.40;85.60;;;19.65;67.56;97596.03;5040255;28;20054;-41
2021/06/23 02:57:07;;;;;;;18.95;15.95;;;19.40;85.70;;;19.63;67.39;97600.81;5022672;28;20053;-41
2021/06/23 02:59:37;;;;;;;22.98;18.42;;;19.40;85.70;;;19.62;67.63;97607.28;5023301;28;20271;-41
2021/06/23 03:02:06;;;;;;;19.65;16.40;;;19.40;85.90;;;19.61;67.34;97608.31;5024665;28;20068;-41
2021/06/23 03:04:34;;;;;;;20.80;16.55;;;19.40;85.90;;;19.61;67.57;97619.09;5022688;28;20247;-41
2021/06/23 03:07:13;;;;;;;20.02;15.45;;;19.40;86.00;;;19.62;67.57;97623.47;5025310;28;20287;-41
2021/06/23 03:09:48;;;;;;;19.38;16.73;;;19.40;86.20;;;19.61;67.68;97629.91;5025281;28;20370;-42
2021/06/23 03:12:35;;;;;;;21.05;15.35;;;19.40;86.10;;;19.62;67.40;97647.78;5029043;28;20042;-41
2021/06/23 03:15:22;;;;;;;19.42;16.40;;;19.40;86.30;;;19.62;67.63;97645.09;5027717;28;20037;-41
2021/06/23 03:17:56;;;;;;;26.02;15.65;;;19.40;86.20;;;19.62;67.67;97648.59;5022958;28;20054;-41
2021/06/23 03:20:24;;;;;;;18.15;14.60;;;19.40;86.40;;;19.63;67.98;97652.94;5040592;28;20096;-40
2021/06/23 03:22:54;;;;;;;18.20;15.40;;;19.40;86.40;;;19.63;67.70;97654.81;5024668;28;20505;-41
2021/06/23 03:25:22;;;;;;;17.88;15.63;;;19.50;86.40;;;19.63;67.65;97652.94;5024531;28;20053;-41
2021/06/23 03:27:59;;;;;;;19.90;15.15;;;19.50;86.40;;;19.64;67.62;97651.91;5023649;28;20075;-40
2021/06/23 03:30:29;;;;;;;23.63;17.33;;;19.50;86.70;;;19.66;67.82;97655.22;5023479;28;20064;-40
2021/06/23 03:32:58;;;;;;;22.42;16.73;;;19.50;86.60;;;19.67;68.18;97651.44;5039791;28;20053;-40
2021/06/23 03:35:27;;;;;;;21.58;15.52;;;19.50;86.60;;;19.70;68.16;97652.06;5025201;28;20049;-41
2021/06/23 03:37:57;;;;;;;22.65;17.17;;;19.50;86.60;;;19.71;67.94;97653.72;5029728;28;20068;-41
2021/06/23 03:40:26;;;;;;;24.30;16.92;;;19.50;86.60;;;19.70;68.12;97658.31;5028725;28;20063;-41
2021/06/23 03:42:56;;;;;;;22.42;16.80;;;19.50;86.90;;;19.70;68.07;97643.94;5026212;28;20067;-41
2021/06/23 03:45:43;;;;;;;22.10;16.45;;;19.50;86.70;;;19.70;67.95;97639.41;5025515;28;20059;-41
2021/06/23 03:48:12;;;;;;;23.05;17.38;;;19.50;86.70;;;19.71;68.14;97632.13;5028412;28;20053;-41
2021/06/23 03:50:44;;;;;;;22.02;16.05;;;19.50;86.70;;;19.73;68.12;97643.56;5027623;28;20058;-41
2021/06/23 03:53:13;;;;;;;21.48;17.15;;;19.60;86.80;;;19.73;68.28;97648.97;5027265;28;20053;-41
2021/06/23 03:55:41;;;;;;;24.90;16.85;;;19.60;86.80;;;19.73;68.26;97649.78;5028075;28;20061;-41
2021/06/23 03:58:09;;;;;;;25.42;16.40;;;19.60;87.00;;;19.74;68.43;97656.03;5026583;28;20057;-41
2021/06/23 04:00:38;;;;;;;20.77;17.08;;;19.60;87.20;;;19.72;68.12;97656.25;5027091;28;20049;-40
2021/06/23 04:03:25;;;;;;;21.27;16.52;;;19.50;86.90;;;19.72;68.59;97656.25;5028519;28;20049;-41
2021/06/23 04:06:10;;;;;;;21.85;17.10;;;19.50;87.30;;;19.73;68.48;97657.06;5027132;28;20053;-41
2021/06/23 04:08:38;;;;;;;18.70;14.88;;;19.60;87.10;;;19.75;68.29;97663.88;5026720;28;20065;-41
2021/06/23 04:11:06;;;;;;;21.40;16.25;;;19.60;87.10;;;19.74;68.48;97658.72;5027295;28;20072;-41
2021/06/23 04:13:36;;;;;;;18.98;13.30;;;19.60;86.80;;;19.75;68.39;97647.69;5025079;28;20064;-41
2021/06/23 04:16:04;;;;;;;17.52;15.25;;;19.60;86.50;;;19.74;68.30;97651.44;5027163;28;20347;-41
2021/06/23 04:18:37;;;;;;;18.25;14.85;;;19.60;86.60;;;19.74;68.39;97654.16;5024965;28;20045;-43
2021/06/23 04:21:05;;;;;;;19.75;14.35;;;19.60;86.80;;;19.74;68.62;97666.84;5026601;28;20053;-40
2021/06/23 04:23:34;;;;;;;19.23;14.60;;;19.60;87.00;;;19.74;68.57;97661.44;5026536;28;20351;-40
2021/06/23 04:26:02;;;;;;;15.80;13.65;;;19.60;87.30;;;19.73;68.54;97674.09;5025999;28;20053;-41
2021/06/23 04:28:30;;;;;;;17.38;14.50;;;19.60;87.30;;;19.75;68.96;97666.59;5026370;28;20065;-41
2021/06/23 04:31:00;;;;;;;18.80;15.10;;;19.60;87.30;;;19.76;68.67;97673.66;5025424;22;20058;-41
2021/06/23 04:33:29;;;;;;;20.05;15.38;;;19.60;87.30;;;19.77;68.87;97669.06;4983246;28;20048;-40
2021/06/23 04:36:08;;;;;;;19.25;16.23;;;19.60;87.40;;;19.78;69.00;97673.44;4985289;28;20066;-41
2021/06/23 04:38:37;;;;;;;16.08;13.10;;;19.60;87.40;;;19.76;68.61;97673.66;4986575;28;20244;-41
2021/06/23 04:41:06;;;;;;;19.83;13.93;;;19.60;87.50;;;19.75;68.64;97674.69;4999919;28;20260;-40
2021/06/23 04:43:38;;;;;;;16.98;12.88;;;19.50;87.50;;;19.76;68.55;97675.53;4982665;28;20061;-40
2021/06/23 04:46:07;;;;;;;16.58;12.07;;;19.50;87.60;;;19.74;68.86;97670.34;4983965;28;20068;-41
2021/06/23 04:48:35;;;;;;;16.10;12.50;;;19.50;87.70;;;19.77;68.91;97674.47;4983555;28;20456;-41
2021/06/23 04:51:08;;;;;;;15.25;12.55;;;19.50;87.60;;;19.78;68.82;97670.75;4986421;28;20363;-41
2021/06/23 04:53:37;;;;;;;14.77;12.43;;;19.60;87.70;;;19.79;68.94;97678.63;4984997;28;20053;-41
2021/06/23 04:56:08;;;;;;;14.52;12.95;;;19.60;87.50;;;19.82;68.78;97680.88;4983293;28;20084;-41
2021/06/23 04:58:42;;;;;;;15.73;11.75;;;19.70;87.50;;;19.84;68.76;97673.38;4981705;28;20059;-42
2021/06/23 05:01:13;;;;;;;13.07;11.60;;;19.70;87.40;;;19.89;69.12;97685.41;4984048;28;20068;-42
2021/06/23 05:03:45;;;;;;;14.52;11.73;;;19.80;87.40;;;19.93;69.12;97692.00;4983674;28;20254;-41
2021/06/23 05:06:13;;;;;;;14.02;11.13;;;19.80;87.20;;;19.95;69.02;97682.66;4983801;28;20063;-41
2021/06/23 05:08:41;;;;;;;13.93;10.75;;;19.90;87.20;;;19.99;69.04;97688.47;4983872;28;20054;-40
2021/06/23 05:11:09;;;;;;;15.00;11.25;;;19.90;86.90;;;20.02;68.97;97688.81;4984078;28;20116;-41
2021/06/23 05:13:40;;;;;;;15.80;8.85;;;20.00;86.70;;;20.04;68.88;97686.72;4982855;28;20050;-41
2021/06/23 05:16:08;;;;;;;11.57;9.60;;;20.00;86.40;;;20.05;68.94;97692.97;4984767;28;20059;-40
2021/06/23 05:18:36;;;;;;;11.05;9.20;;;20.10;86.30;;;20.08;68.70;97692.50;4984946;28;20054;-40
2021/06/23 05:21:04;;;;;;;12.20;9.65;;;20.10;86.10;;;20.07;68.69;97693.56;4983494;28;20054;-40
2021/06/23 05:23:33;;;;;;;12.88;10.02;;;20.10;85.80;;;20.10;68.55;97693.13;4985189;28;20064;-40
2021/06/23 05:26:01;;;;;;;12.32;10.32;;;20.10;85.70;;;20.15;68.63;97690.59;4986047;28;20054;-40
2021/06/23 05:28:29;;;;;;;11.23;8.98;;;20.20;85.70;;;20.20;68.31;97690.75;4983886;28;20054;-40
2021/06/23 05:30:57;;;;;;;11.20;9.38;;;20.20;85.50;;;20.25;68.32;97690.09;4983512;28;20046;-40
2021/06/23 05:33:25;;;;;;;9.98;8.85;;;20.30;85.50;;;20.31;68.54;97693.78;4983131;28;20056;-41
2021/06/23 05:35:52;;;;;;;11.05;8.85;;;20.40;85.20;;;20.36;68.47;97692.06;4983077;28;20054;-40
2021/06/23 05:38:21;;;;;;;10.23;8.82;;;20.40;84.90;;;20.42;67.98;97701.16;4984241;28;20080;-40
2021/06/23 05:40:49;;;;;;;12.02;9.85;;;20.40;84.60;;;20.46;68.11;97702.38;4985191;28;20360;-40
2021/06/23 05:43:17;;;;;;;14.25;9.35;;;20.50;84.90;;;20.49;67.59;97707.34;4983993;28;20283;-40
2021/06/23 05:45:45;;;;;;;11.25;9.18;;;20.50;84.60;;;20.48;67.51;97710.25;4985348;28;20058;-40
2021/06/23 05:48:13;;;;;;;12.75;8.88;;;20.40;84.50;;;20.41;67.67;97716.56;4982092;28;20069;-40
2021/06/23 05:50:41;;;;;;;10.48;8.75;;;20.30;84.70;;;20.37;67.74;97728.84;4982639;28;20050;-40
2021/06/23 05:53:09;;;;;;;12.02;9.25;;;20.20;84.80;;;20.33;67.85;97722.22;4982751;28;20060;-40
2021/06/23 05:55:39;;;;;;;9.73;8.35;;;20.30;85.00;;;20.36;67.75;97721.81;4983541;28;20050;-40
2021/06/23 05:58:08;;;;;;;11.70;9.02;;;20.30;85.10;;;20.43;67.67;97719.03;4983034;28;20054;-41
2021/06/23 06:00:36;;;;;;;13.02;10.10;;;20.40;84.70;;;20.45;67.41;97731.28;4981691;28;20062;-41
2021/06/23 06:03:06;;;;;;;12.45;8.95;;;20.40;84.30;;;20.48;67.54;97732.72;4982035;28;20058;-41
2021/06/23 06:05:34;;;;;;;15.10;11.18;;;20.40;84.40;;;20.50;67.76;97733.31;4984052;28;20048;-40
2021/06/23 06:08:02;;;;;;;13.10;10.23;;;20.40;84.30;;;20.52;67.57;97733.09;4982558;28;20070;-40
2021/06/23 06:10:32;;;;;;;15.05;10.63;;;20.40;84.50;;;20.52;67.17;97738.50;4982699;28;20061;-40
2021/06/23 06:13:04;;;;;;;15.23;12.25;;;20.40;84.30;;;20.50;67.37;97740.63;4983567;28;20061;-39
2021/06/23 06:15:33;;;;;;;13.20;11.20;;;20.40;84.70;;;20.43;67.47;97740.66;4982687;28;20046;-40
2021/06/23 06:18:06;;;;;;;15.00;11.88;;;20.30;85.10;;;20.36;67.71;97748.03;4982914;28;20047;-40
2021/06/23 06:20:35;;;;;;;15.95;12.32;;;20.10;85.90;;;20.29;67.79;97739.13;4983553;28;20389;-39
2021/06/23 06:23:04;;;;;;;13.60;11.07;;;20.00;86.00;;;20.24;68.04;97746.03;4982718;28;20258;-39
2021/06/23 06:25:32;;;;;;;14.23;12.13;;;20.00;86.10;;;20.23;68.09;97743.53;4983873;28;20050;-39
2021/06/23 06:28:00;;;;;;;14.70;12.13;;;20.00;86.10;;;20.20;67.96;97752.94;4983535;28;20058;-39
2021/06/23 06:30:28;;;;;;;16.60;12.73;;;20.00;85.90;;;20.18;68.04;97749.63;4982642;28;20061;-39
2021/06/23 06:32:57;;;;;;;15.60;12.75;;;20.00;86.00;;;20.18;68.27;97754.19;4982381;28;20213;-40
2021/06/23 06:35:25;;;;;;;16.00;12.13;;;20.00;86.00;;;20.10;67.96;97744.47;4984768;28;20061;-39
2021/06/23 06:37:55;;;;;;;13.95;12.20;;;19.90;86.10;;;20.11;68.06;97750.72;4984878;28;20050;-39
2021/06/23 06:40:23;;;;;;;14.85;11.75;;;19.90;86.90;;;20.10;68.18;97757.16;4982075;28;20057;-40
2021/06/23 06:42:54;;;;;;;13.05;10.90;;;19.90;86.20;;;20.09;68.34;97761.75;4983071;28;20270;-39
2021/06/23 06:45:23;;;;;;;12.38;10.65;;;19.90;86.10;;;20.13;68.10;97757.56;4982556;28;20053;-39
2021/06/23 06:47:51;;;;;;;11.20;10.02;;;20.00;86.00;;;20.17;68.45;97760.66;4982992;28;20239;-39
2021/06/23 06:50:19;;;;;;;13.88;10.70;;;20.10;85.60;;;20.19;68.24;97763.97;4982329;28;20054;-39
2021/06/23 06:52:47;;;;;;;10.90;9.10;;;20.10;85.10;;;20.21;68.09;97761.84;4982826;28;20062;-40
2021/06/23 06:55:20;;;;;;;12.15;9.98;;;20.20;85.00;;;20.22;67.79;97766.19;4982131;28;20055;-39
2021/06/23 06:57:51;;;;;;;13.32;10.50;;;20.20;84.80;;;20.22;67.93;97761.66;4982395;28;20054;-40
2021/06/23 07:00:20;;;;;;;12.02;10.07;;;20.10;85.20;;;20.25;67.94;97758.47;4983220;28;20058;-40
2021/06/23 07:02:52;;;;;;;11.25;10.05;;;20.20;85.10;;;20.27;68.19;97760.97;4982127;28;20050;-40
2021/06/23 07:05:22;;;;;;;10.75;9.65;;;20.30;84.90;;;20.26;67.84;97762.03;4983809;28;20070;-40
2021/06/23 07:07:51;;;;;;;11.50;9.02;;;20.30;84.50;;;20.24;67.55;97758.72;4982772;28;20267;-40
2021/06/23 07:10:19;;;;;;;11.60;9.50;;;20.20;84.30;;;20.24;67.62;97762.25;4986174;28;20054;-40
2021/06/23 07:12:47;;;;;;;11.02;8.88;;;20.10;84.50;;;20.24;67.95;97766.84;4986698;28;20339;-40
2021/06/23 07:15:16;;;;;;;10.38;8.23;;;20.20;84.70;;;20.29;68.02;97764.28;4985259;28;20053;-40
2021/06/23 07:17:44;;;;;;;9.95;8.85;;;20.40;84.50;;;20.35;67.79;97762.56;4984809;28;20058;-42
2021/06/23 07:20:12;;;;;;;10.52;7.63;;;20.40;84.20;;;20.41;67.55;97767.09;4984998;28;20051;-40
2021/06/23 07:22:40;;;;;;;9.32;7.38;;;20.50;84.80;;;20.50;67.71;97770.34;5013948;28;20058;-40
2021/06/23 07:25:09;;;;;;;7.38;6.47;;;20.60;83.60;;;20.58;67.75;97765.47;5001372;28;20050;-40
2021/06/23 07:27:37;;;;;;;9.27;6.30;;;20.80;83.50;;;20.69;67.30;97765.84;5001911;28;20077;-40
2021/06/23 07:30:07;;;;;;;7.15;6.32;;;20.80;84.00;;;20.81;67.22;97769.47;5001705;28;20056;-40
2021/06/23 07:32:43;;;;;;;8.25;6.45;;;21.00;82.80;;;20.87;67.14;97773.97;5001768;28;20038;-40
2021/06/23 07:38:01;;;;;;;9.35;7.50;;;21.20;82.40;;;20.92;66.29;97774.13;5001442;28;20058;-40
2021/06/23 07:43:26;;;;;;;8.15;7.10;;;21.00;81.90;;;20.88;66.37;97775.66;5010027;28;20076;-40
2021/06/23 07:45:57;;;;;;;9.18;7.65;;;20.90;82.20;;;20.90;66.68;97772.69;5001579;28;20042;-40
2021/06/23 07:48:33;;;;;;;8.20;7.40;;;21.00;82.40;;;20.94;66.65;97782.03;5001707;28;20247;-40
2021/06/23 07:51:13;;;;;;;8.35;7.55;;;21.00;82.20;;;20.94;66.68;97777.44;4998118;28;20068;-40
2021/06/23 07:56:37;;;;;;;8.25;6.50;;;21.00;82.10;;;20.94;66.25;97776.63;5000456;28;20239;-40
2021/06/23 08:10:30;;;;;;;9.05;7.72;;;20.90;82.00;;;20.87;66.07;97781.28;5063266;28;20060;-40
2021/06/23 08:12:58;;;;;;;7.70;6.90;;;20.90;81.90;;;20.90;66.13;97791.63;5065641;28;20061;-40
2021/06/23 08:15:32;;;;;;;9.07;7.28;;;21.00;81.50;;;20.93;66.01;97794.72;5052832;28;20064;-40
2021/06/23 08:18:00;;;;;;;9.35;8.20;;;21.00;81.80;;;20.98;66.01;97783.25;5038692;28;20040;-40
2021/06/23 08:20:28;;;;;;;8.57;7.68;;;21.00;81.40;;;20.91;65.77;97777.88;5041713;28;20054;-39
2021/06/23 08:22:57;;;;;;;8.73;7.25;;;21.00;81.10;;;21.02;66.04;97781.72;5000414;28;20359;-39
2021/06/23 08:25:25;;;;;;;7.82;6.97;;;21.10;81.30;;;21.09;65.69;97776.22;4999019;28;20266;-39
2021/06/23 08:27:54;;;;;;;7.65;6.65;;;21.20;81.30;;;21.15;65.86;97780.75;5000941;28;20050;-39
2021/06/23 08:30:23;;;;;;;8.70;7.85;;;21.30;80.80;;;21.16;65.66;97771.59;5000874;28;20115;-39
2021/06/23 08:32:51;;;;;;;8.50;7.07;;;21.30;80.60;;;21.21;64.89;97769.03;5000810;28;20039;-39
2021/06/23 08:35:19;;;;;;;7.75;6.95;;;21.30;80.30;;;21.23;65.00;97769.63;4999007;28;20464;-39
2021/06/23 08:37:47;;;;;;;9.75;7.07;;;21.40;80.20;;;21.21;64.82;97769.84;4999548;28;20065;-39
2021/06/23 08:40:16;;;;;;;7.22;6.53;;;21.40;80.70;;;21.26;65.16;97777.28;5000790;28;20057;-39
2021/06/23 08:42:44;;;;;;;11.75;7.72;;;21.40;79.70;;;21.32;65.43;97770.97;5001034;28;20115;-39
2021/06/23 08:45:13;;;;;;;7.15;6.45;;;21.50;80.40;;;21.36;65.37;97777.56;5002127;28;20058;-39
2021/06/23 08:47:48;;;;;;;8.32;7.13;;;21.60;80.30;;;21.38;65.44;97778.19;4999833;28;20058;-39
2021/06/23 08:50:23;;;;;;;7.68;6.95;;;21.60;79.80;;;21.43;64.76;97772.09;5013135;28;20058;-39
2021/06/23 08:52:51;;;;;;;7.63;6.03;;;21.70;79.30;;;21.48;65.07;97774.97;5000488;28;20046;-39
2021/06/23 08:55:20;;;;;;;10.15;7.18;;;21.70;79.80;;;21.50;64.99;97763.91;5002186;28;20050;-39
2021/06/23 08:57:51;;;;;;;7.88;6.88;;;21.80;79.60;;;21.57;65.15;97764.63;5000087;28;20236;-39
2021/06/23 09:00:24;;;;;;;7.75;6.95;;;21.80;79.60;;;21.63;64.91;97770.00;4987919;28;20038;-39
2021/06/23 09:03:06;;;;;;;8.68;6.10;;;21.80;79.50;;;21.65;64.51;97764.31;4999291;28;20351;-40
2021/06/23 09:05:55;;;;;;;8.75;7.93;;;21.80;78.00;;;21.47;63.91;97761.66;5000059;28;20370;-39
2021/06/23 09:08:37;;;;;;;7.35;6.53;;;21.70;78.00;;;21.51;64.25;97760.16;4997982;28;20553;-39
2021/06/23 09:11:20;;;;;;;8.57;7.22;;;21.70;78.80;;;21.60;64.00;97759.59;4999912;28;20058;-39
2021/06/23 09:13:50;;;;;;;9.40;7.57;;;21.80;78.00;;;21.69;63.91;97761.97;4999615;28;20038;-39
2021/06/23 09:16:19;;;;;;;8.77;7.88;;;21.90;78.60;;;21.75;63.85;97758.34;4999691;28;20057;-39
2021/06/23 09:18:49;;;;;;;8.55;7.75;;;22.00;77.30;;;21.63;63.64;97759.16;4999643;28;20058;-39
2021/06/23 09:21:23;;;;;;;6.78;6.18;;;21.80;77.70;;;21.61;62.54;97755.81;4998929;28;20046;-39
2021/06/23 09:23:58;;;;;;;11.95;7.28;;;21.80;76.50;;;21.65;63.48;97750.78;5000363;28;20054;-39
2021/06/23 09:26:38;;;;;;;7.25;6.55;;;21.80;77.90;;;21.72;63.28;97754.22;4997417;28;20047;-39
2021/06/23 09:29:18;;;;;;;9.23;6.22;;;21.90;77.40;;;21.79;63.08;97754.13;4998241;28;20066;-39
2021/06/23 09:32:04;;;;;;;7.85;7.05;;;22.10;77.10;;;21.78;62.09;97745.16;4996356;28;20052;-39
2021/06/23 09:34:47;;;;;;;6.72;5.90;;;22.20;75.80;;;21.91;62.13;97746.88;4992449;28;20376;-39
2021/06/23 09:37:32;;;;;;;10.93;6.78;;;22.20;75.40;;;21.97;62.29;97751.34;4997746;28;20046;-39
2021/06/23 09:40:19;;;;;;;7.88;6.55;;;22.30;75.20;;;21.97;62.14;97743.22;4999464;28;20046;-39
2021/06/23 09:43:01;;;;;;;6.82;6.22;;;22.30;75.00;;;22.04;62.01;97745.81;4997767;28;20244;-39
2021/06/23 09:45:30;;;;;;;8.77;5.57;;;22.30;75.40;;;22.03;61.93;97742.28;4997437;28;20058;-39
2021/06/23 09:48:07;;;;;;;6.68;5.85;;;22.30;75.70;;;22.08;61.73;97735.34;4998053;28;20050;-39
2021/06/23 09:50:36;;;;;;;7.80;6.07;;;22.40;74.70;;;22.09;61.39;97747.84;4998419;28;20046;-40
2021/06/23 09:53:13;;;;;;;8.18;6.18;;;22.40;73.80;;;22.09;61.31;97750.56;4999271;28;20050;-39
2021/06/23 09:55:47;;;;;;;9.35;6.28;;;22.30;74.70;;;22.17;61.56;97740.19;4998937;28;20050;-39
2021/06/23 09:58:23;;;;;;;6.93;6.20;;;22.50;74.90;;;22.19;61.18;97742.66;4998884;28;20049;-39
2021/06/23 10:01:04;;;;;;;7.20;6.53;;;22.50;74.20;;;22.26;61.41;97746.16;4996828;28;20065;-39
2021/06/23 10:03:52;;;;;;;7.65;6.32;;;22.50;74.10;;;22.33;60.85;97735.16;4999319;28;20247;-39
2021/06/23 10:06:22;;;;;;;6.00;5.38;;;22.60;73.60;;;22.43;60.74;97735.44;4998279;28;20058;-40
2021/06/23 10:09:10;;;;;;;5.82;5.10;;;22.80;74.00;;;22.54;60.83;97728.34;4979481;28;20511;-40
2021/06/23 10:11:40;;;;;;;6.68;5.82;;;22.90;73.90;;;22.59;59.59;97736.59;4979648;28;20508;-40
2021/06/23 10:14:10;;;;;;;6.20;5.55;;;23.10;70.40;;;22.59;59.56;97745.56;4979308;28;20051;-40
2021/06/23 10:16:38;;;;;;;5.72;5.03;;;22.90;71.00;;;22.63;59.12;97736.97;5042899;28;20063;-40
2021/06/23 10:19:07;;;;;;;5.72;5.22;;;22.90;71.50;;;22.59;58.00;97734.72;5081024;28;20052;-40
2021/06/23 10:21:37;;;;;;;6.07;4.38;;;22.90;70.50;;;22.60;58.65;97730.94;5080211;28;20254;-39
2021/06/23 10:24:09;;;;;;;5.80;4.45;;;22.90;71.10;;;22.68;58.65;97731.63;5071433;28;20059;-40
2021/06/23 10:26:43;;;;;;;5.50;4.65;;;23.00;71.40;;;22.78;58.98;97732.69;4976598;28;20065;-40
2021/06/23 10:29:14;;;;;;;8.07;5.03;;;23.20;71.50;;;22.86;58.65;97725.28;4976857;28;20055;-40
2021/06/23 10:31:45;;;;;;;6.15;4.55;;;23.30;70.60;;;22.99;58.64;97727.69;4979199;28;20047;-40
2021/06/23 10:34:17;;;;;;;4.85;4.15;;;23.50;70.80;;;23.07;57.88;97719.25;4978901;28;20054;-39
2021/06/23 10:36:47;;;;;;;6.53;4.47;;;23.60;70.20;;;23.15;58.02;97713.41;4978622;28;20061;-39
2021/06/23 10:39:17;;;;;;;5.75;4.13;;;23.70;70.10;;;23.26;57.98;97721.78;4979053;28;20242;-40
2021/06/23 10:41:57;;;;;;;5.03;4.50;;;23.80;69.80;;;23.34;57.09;97708.66;4979195;28;20061;-40
2021/06/23 10:44:32;;;;;;;4.95;3.90;;;24.00;66.60;;;23.40;55.01;97715.00;4977335;28;20081;-39
2021/06/23 10:47:04;;;;;;;6.88;5.00;;;24.00;65.20;;;23.51;56.97;97707.84;4979247;28;20046;-40
2021/06/23 10:49:40;;;;;;;4.68;3.90;;;24.10;67.10;;;23.56;54.60;97707.97;4978486;28;20363;-40
2021/06/23 10:52:20;;;;;;;5.90;4.90;;;24.10;64.80;;;23.55;56.02;97711.72;4979366;28;20348;-40